createdAt,value
2018-05-16T00:01:29.696Z,98256.97
2018-05-16T00:03:57.978Z,98253.66
2018-05-16T00:06:25.576Z,98253.66
2018-05-16T00:08:53.152Z,98256.09
2018-05-16T00:11:20.879Z,98256.42
2018-05-16T00:13:48.478Z,98247.87
2018-05-16T00:16:16.116Z,98251.17
2018-05-16T00:18:43.913Z,98234.39
2018-05-16T00:21:11.496Z,98238.56
2018-05-16T00:23:39.066Z,98230.77
2018-05-16T00:26:06.712Z,98234.00
2018-05-16T00:28:34.280Z,98233.54
2018-05-16T00:31:02.604Z,98227.05
2018-05-16T00:33:30.347Z,98219.94
2018-05-16T00:35:57.924Z,98217.36
2018-05-16T00:38:25.567Z,98214.81
2018-05-16T00:40:53.209Z,98213.67
2018-05-16T00:43:20.887Z,98210.89
2018-05-16T00:45:48.526Z,98207.97
2018-05-16T00:48:16.316Z,98206.06
2018-05-16T00:50:55.867Z,98204.95
2018-05-16T00:53:23.488Z,98209.82
2018-05-16T00:55:51.125Z,98204.12
2018-05-16T00:58:18.762Z,98203.55
2018-05-16T01:00:46.809Z,98196.17
2018-05-16T01:03:14.413Z,98208.53
2018-05-16T01:05:42.048Z,98206.93
2018-05-16T01:08:09.852Z,98206.52
2018-05-16T01:10:37.505Z,98204.13
2018-05-16T01:13:05.146Z,98190.45
2018-05-16T01:15:33.309Z,98191.59
2018-05-16T01:18:00.882Z,98190.33
2018-05-16T01:20:28.486Z,98190.10
2018-05-16T01:22:56.210Z,98189.19
2018-05-16T01:25:23.845Z,98190.78
2018-05-16T01:27:51.501Z,98194.77
2018-05-16T01:30:19.136Z,98213.75
2018-05-16T01:32:46.712Z,98210.48
2018-05-16T01:35:14.293Z,98211.55
2018-05-16T01:37:42.036Z,98212.27
2018-05-16T01:40:09.676Z,98201.28
2018-05-16T01:42:37.246Z,98190.11
2018-05-16T01:45:04.901Z,98199.07
2018-05-16T01:47:32.491Z,98209.87
2018-05-16T01:50:00.078Z,98201.41
2018-05-16T01:52:27.868Z,98203.06
2018-05-16T01:54:56.200Z,98205.19
2018-05-16T01:57:23.784Z,98201.99
2018-05-16T01:59:51.568Z,98208.47
2018-05-16T02:02:19.147Z,98207.33
2018-05-16T02:04:46.784Z,98206.33
2018-05-16T02:07:14.466Z,98205.69
2018-05-16T02:09:42.112Z,98199.62
2018-05-16T02:12:09.683Z,98201.59
2018-05-16T02:14:37.394Z,98207.27
2018-05-16T02:17:04.993Z,98197.89
2018-05-16T02:19:32.583Z,98196.30
2018-05-16T02:22:00.272Z,98199.61
2018-05-16T02:24:27.862Z,98208.69
2018-05-16T02:26:55.489Z,98204.78
2018-05-16T02:29:23.164Z,98199.67
2018-05-16T02:31:50.735Z,98200.63
2018-05-16T02:34:18.315Z,98198.30
2018-05-16T02:36:45.955Z,98185.47
2018-05-16T02:39:13.538Z,98191.05
2018-05-16T02:41:41.177Z,98174.50
2018-05-16T02:44:08.908Z,98177.88
2018-05-16T02:46:36.562Z,98192.64
2018-05-16T02:49:04.160Z,98196.70
2018-05-16T02:51:31.850Z,98197.28
2018-05-16T02:53:59.433Z,98200.97
2018-05-16T02:56:27.015Z,98194.14
2018-05-16T02:58:54.669Z,98204.66
2018-05-16T03:01:22.317Z,98198.77
2018-05-16T03:03:49.904Z,98200.33
2018-05-16T03:06:17.636Z,98212.02
2018-05-16T03:08:45.660Z,98212.86
2018-05-16T03:11:13.308Z,98214.12
2018-05-16T03:13:41.805Z,98215.90
2018-05-16T03:16:09.407Z,98224.22
2018-05-16T03:18:36.998Z,98225.58
2018-05-16T03:21:04.731Z,98218.22
2018-05-16T03:23:32.368Z,98219.09
2018-05-16T03:25:59.975Z,98227.19
2018-05-16T03:28:27.617Z,98233.48
2018-05-16T03:30:55.198Z,98229.20
2018-05-16T03:33:22.857Z,98226.69
2018-05-16T03:35:50.573Z,98227.37
2018-05-16T03:38:18.152Z,98220.23
2018-05-16T03:40:45.727Z,98230.02
2018-05-16T03:43:13.463Z,98225.34
2018-05-16T03:45:41.044Z,98226.52
2018-05-16T03:48:08.670Z,98226.30
2018-05-16T03:50:36.399Z,98231.53
2018-05-16T03:53:03.992Z,98240.31
2018-05-16T03:55:31.583Z,98238.11
2018-05-16T03:58:19.714Z,98243.00
2018-05-16T04:01:10.728Z,98246.42
2018-05-16T04:03:50.067Z,98234.89
2018-05-16T04:06:17.651Z,98233.67
2018-05-16T04:08:45.229Z,98232.81
2018-05-16T04:11:13.058Z,98228.72
2018-05-16T04:13:40.639Z,98228.31
2018-05-16T04:16:08.235Z,98233.66
2018-05-16T04:18:36.038Z,98233.40
2018-05-16T04:21:03.684Z,98235.08
2018-05-16T04:23:31.261Z,98238.73
2018-05-16T04:25:58.994Z,98238.15
2018-05-16T04:28:26.642Z,98246.13
2018-05-16T04:30:54.213Z,98244.06
2018-05-16T04:33:22.361Z,98248.84
2018-05-16T04:35:49.945Z,98248.72
2018-05-16T04:38:17.528Z,98248.33
2018-05-16T04:40:45.152Z,98252.66
2018-05-16T04:43:12.727Z,98258.77
2018-05-16T04:45:40.329Z,98267.67
2018-05-16T04:48:08.089Z,98266.47
2018-05-16T04:50:36.279Z,98273.48
2018-05-16T04:53:03.852Z,98268.02
2018-05-16T04:55:31.478Z,98276.19
2018-05-16T04:57:59.068Z,98277.27
2018-05-16T05:00:26.661Z,98271.32
2018-05-16T05:02:54.340Z,98276.21
2018-05-16T05:05:21.925Z,98278.09
2018-05-16T05:07:49.515Z,98280.29
2018-05-16T05:10:17.188Z,98285.69
2018-05-16T05:12:44.815Z,98281.16
2018-05-16T05:15:12.405Z,98282.70
2018-05-16T05:17:40.049Z,98286.44
2018-05-16T05:20:07.652Z,98291.83
2018-05-16T05:22:35.227Z,98287.80
2018-05-16T05:25:02.852Z,98296.98
2018-05-16T05:27:30.504Z,98295.19
2018-05-16T05:29:58.089Z,98300.45
2018-05-16T05:32:25.835Z,98314.31
2018-05-16T05:34:53.423Z,98310.61
2018-05-16T05:37:21.000Z,98303.91
2018-05-16T05:39:48.639Z,98302.02
2018-05-16T05:42:16.242Z,98306.34
2018-05-16T05:44:43.847Z,98308.77
2018-05-16T05:47:12.123Z,98310.81
2018-05-16T05:49:39.707Z,98304.91
2018-05-16T05:52:07.300Z,98309.47
2018-05-16T05:54:34.941Z,98310.64
2018-05-16T05:57:02.549Z,98312.92
2018-05-16T05:59:30.146Z,98312.52
2018-05-16T06:01:57.860Z,98315.36
2018-05-16T06:04:25.451Z,98317.77
2018-05-16T06:06:53.036Z,98319.42
2018-05-16T06:09:20.780Z,98311.25
2018-05-16T06:11:48.461Z,98314.39
2018-05-16T06:14:16.084Z,98314.64
2018-05-16T06:16:43.733Z,98321.80
2018-05-16T06:19:11.322Z,98321.72
2018-05-16T06:21:38.923Z,98320.05
2018-05-16T06:24:06.584Z,98326.39
2018-05-16T06:26:34.209Z,98320.75
2018-05-16T06:29:02.408Z,98320.89
2018-05-16T06:31:30.056Z,98320.65
2018-05-16T06:33:57.668Z,98312.50
2018-05-16T06:36:25.260Z,98322.00
2018-05-16T06:38:52.972Z,98323.05
2018-05-16T06:41:20.586Z,98325.45
2018-05-16T06:43:48.193Z,98329.68
2018-05-16T06:46:15.912Z,98325.06
2018-05-16T06:48:44.121Z,98326.25
2018-05-16T06:51:11.705Z,98335.08
2018-05-16T06:53:39.349Z,98332.28
2018-05-16T06:56:06.941Z,98329.98
2018-05-16T06:58:34.535Z,98334.22
2018-05-16T07:01:02.168Z,98332.52
2018-05-16T07:03:29.804Z,98344.66
2018-05-16T07:05:57.405Z,98341.45
2018-05-16T07:08:25.056Z,98339.06
2018-05-16T07:10:52.653Z,98341.22
2018-05-16T07:13:20.248Z,98347.03
2018-05-16T07:15:48.009Z,98342.03
2018-05-16T07:18:15.591Z,98350.84
2018-05-16T07:20:43.185Z,98356.56
2018-05-16T07:23:10.875Z,98350.02
2018-05-16T07:25:38.422Z,98352.00
2018-05-16T07:28:06.017Z,98349.29
2018-05-16T07:30:33.658Z,98350.53
2018-05-16T07:33:01.236Z,98352.61
2018-05-16T07:35:28.821Z,98351.36
2018-05-16T07:37:56.561Z,98346.80
2018-05-16T07:40:24.160Z,98354.20
2018-05-16T07:42:51.769Z,98356.06
2018-05-16T07:45:19.488Z,98364.09
2018-05-16T07:47:47.567Z,98364.77
2018-05-16T07:50:15.155Z,98374.34
2018-05-16T07:52:42.789Z,98369.11
2018-05-16T07:55:10.385Z,98362.70
2018-05-16T07:57:38.316Z,98373.23
2018-05-16T08:00:05.985Z,98372.01
2018-05-16T08:02:33.588Z,98377.45
2018-05-16T08:05:01.524Z,98378.72
2018-05-16T08:07:29.162Z,98379.84
2018-05-16T08:09:56.749Z,98380.65
2018-05-16T08:12:24.335Z,98378.09
2018-05-16T08:14:51.972Z,98377.77
2018-05-16T08:17:19.561Z,98380.32
2018-05-16T08:19:47.151Z,98381.58
2018-05-16T08:22:14.864Z,98382.80
2018-05-16T08:24:42.467Z,98383.84
2018-05-16T08:27:10.072Z,98384.95
2018-05-16T08:29:37.701Z,98380.02
2018-05-16T08:32:05.293Z,98385.20
2018-05-16T08:34:32.887Z,98381.55
2018-05-16T08:37:00.519Z,98382.02
2018-05-16T08:39:28.113Z,98381.06
2018-05-16T08:41:55.696Z,98375.28
2018-05-16T08:44:23.327Z,98377.85
2018-05-16T08:46:50.950Z,98376.18
2018-05-16T08:49:18.531Z,98374.89
2018-05-16T08:51:46.176Z,98384.08
2018-05-16T08:54:13.757Z,98381.12
2018-05-16T08:56:41.355Z,98376.05
2018-05-16T08:59:09.072Z,98387.40
2018-05-16T09:01:36.659Z,98373.83
2018-05-16T09:04:04.249Z,98378.05
2018-05-16T09:06:31.876Z,98378.68
2018-05-16T09:08:59.455Z,98377.02
2018-05-16T09:11:27.041Z,98381.50
2018-05-16T09:13:54.667Z,98380.69
2018-05-16T09:16:22.248Z,98374.70
2018-05-16T09:18:49.841Z,98374.62
2018-05-16T09:21:17.564Z,98385.48
2018-05-16T09:23:45.153Z,98380.14
2018-05-16T09:26:12.749Z,98378.14
2018-05-16T09:28:40.392Z,98370.23
2018-05-16T09:31:07.990Z,98375.52
2018-05-16T09:33:35.571Z,98377.81
2018-05-16T09:36:03.201Z,98375.67
2018-05-16T09:38:30.796Z,98372.83
2018-05-16T09:40:58.372Z,98372.05
2018-05-16T09:43:26.122Z,98368.13
2018-05-16T09:45:53.814Z,98367.78
2018-05-16T09:48:21.409Z,98375.16
2018-05-16T09:50:49.118Z,98373.96
2018-05-16T09:53:16.704Z,98376.12
2018-05-16T09:55:44.354Z,98374.38
2018-05-16T09:58:12.056Z,98369.28
2018-05-16T10:00:39.742Z,98363.39
2018-05-16T10:03:07.373Z,98354.42
2018-05-16T10:05:35.054Z,98360.56
2018-05-16T10:08:02.698Z,98359.57
2018-05-16T10:10:30.408Z,98360.33
2018-05-16T10:12:58.220Z,98360.48
2018-05-16T10:15:25.876Z,98352.59
2018-05-16T10:17:54.502Z,98358.17
2018-05-16T10:20:22.536Z,98351.09
2018-05-16T10:22:50.174Z,98349.72
2018-05-16T10:25:17.813Z,98353.84
2018-05-16T10:27:45.512Z,98349.38
2018-05-16T10:30:13.164Z,98345.31
2018-05-16T10:32:40.840Z,98345.66
2018-05-16T10:35:08.616Z,98345.09
2018-05-16T10:37:36.238Z,98341.29
2018-05-16T10:40:03.965Z,98340.27
2018-05-16T10:42:31.655Z,98343.98
2018-05-16T10:44:59.297Z,98342.42
2018-05-16T10:47:26.940Z,98341.44
2018-05-16T10:49:54.740Z,98347.37
2018-05-16T10:52:22.424Z,98339.14
2018-05-16T10:54:50.056Z,98345.11
2018-05-16T10:57:17.782Z,98338.14
2018-05-16T10:59:45.630Z,98336.31
2018-05-16T11:02:13.091Z,98333.23
2018-05-16T11:04:40.773Z,98329.83
2018-05-16T11:07:08.419Z,98333.08
2018-05-16T11:09:36.070Z,98329.42
2018-05-16T11:12:03.804Z,98322.09
2018-05-16T11:14:31.437Z,98323.89
2018-05-16T11:16:59.322Z,98332.43
2018-05-16T11:19:26.996Z,98322.33
2018-05-16T11:21:54.633Z,98327.16
2018-05-16T11:24:22.269Z,98322.23
2018-05-16T11:26:50.049Z,98321.75
2018-05-16T11:29:18.236Z,98319.09
2018-05-16T11:31:45.871Z,98311.02
2018-05-16T11:34:13.549Z,98314.55
2018-05-16T11:36:41.269Z,98311.84
2018-05-16T11:39:09.042Z,98309.66
2018-05-16T11:41:36.795Z,98314.80
2018-05-16T11:44:04.453Z,98319.16
2018-05-16T11:46:32.099Z,98314.89
2018-05-16T11:48:59.875Z,98311.84
2018-05-16T11:51:27.504Z,98313.45
2018-05-16T11:53:55.216Z,98306.47
2018-05-16T11:56:22.996Z,98307.11
2018-05-16T11:58:50.742Z,98300.45
2018-05-16T12:01:18.378Z,98304.02
2018-05-16T12:03:46.229Z,98297.05
2018-05-16T12:06:13.875Z,98306.84
2018-05-16T12:08:41.584Z,98302.95
2018-05-16T12:11:09.369Z,98310.91
2018-05-16T12:13:37.000Z,98302.10
2018-05-16T12:16:04.673Z,98296.34
2018-05-16T12:18:32.462Z,98295.11
2018-05-16T12:21:00.209Z,98293.84
2018-05-16T12:23:27.852Z,98292.05
2018-05-16T12:25:55.673Z,98285.69
2018-05-16T12:28:23.319Z,98289.45
2018-05-16T12:30:50.952Z,98284.22
2018-05-16T12:33:18.635Z,98281.08
2018-05-16T12:35:46.328Z,98267.79
2018-05-16T12:38:13.956Z,98265.54
2018-05-16T12:40:41.627Z,98268.08
2018-05-16T12:43:17.009Z,98263.98
2018-05-16T12:45:44.700Z,98260.47
2018-05-16T12:48:12.333Z,98265.14
2018-05-16T12:50:39.972Z,98258.16
2018-05-16T12:53:07.753Z,98251.60
2018-05-16T12:55:35.457Z,98257.88
2018-05-16T12:58:03.200Z,98251.12
2018-05-16T13:00:30.899Z,98255.61
2018-05-16T13:02:58.557Z,98254.74
2018-05-16T13:05:26.183Z,98243.34
2018-05-16T13:07:54.016Z,98249.14
2018-05-16T13:10:21.720Z,98240.11
2018-05-16T13:12:49.975Z,98238.11
2018-05-16T13:15:17.664Z,98236.75
2018-05-16T13:17:45.327Z,98241.88
2018-05-16T13:20:12.965Z,98241.53
2018-05-16T13:22:40.660Z,98236.83
2018-05-16T13:25:08.383Z,98236.61
2018-05-16T13:27:36.049Z,98231.56
2018-05-16T13:30:03.911Z,98222.27
2018-05-16T13:32:31.544Z,98221.42
2018-05-16T13:34:59.249Z,98213.42
2018-05-16T13:37:26.964Z,98201.13
2018-05-16T13:39:54.626Z,98194.53
2018-05-16T13:42:22.283Z,98193.53
2018-05-16T13:44:49.986Z,98192.78
2018-05-16T13:47:17.641Z,98190.16
2018-05-16T13:49:45.302Z,98190.88
2018-05-16T13:52:13.097Z,98186.33
2018-05-16T13:54:40.726Z,98180.02
2018-05-16T13:57:08.427Z,98179.07
2018-05-16T13:59:36.118Z,98195.52
2018-05-16T14:02:03.782Z,98179.19
2018-05-16T14:04:31.420Z,98185.24
2018-05-16T14:06:59.111Z,98182.45
2018-05-16T14:09:26.837Z,98190.81
2018-05-16T14:11:54.533Z,98191.41
2018-05-16T14:14:22.579Z,98200.23
2018-05-16T14:16:50.280Z,98193.69
2018-05-16T14:19:18.007Z,98195.88
2018-05-16T14:21:46.588Z,98194.97
2018-05-16T14:24:14.245Z,98195.23
2018-05-16T14:26:41.990Z,98199.23
2018-05-16T14:29:09.696Z,98195.20
2018-05-16T14:31:37.346Z,98199.39
2018-05-16T14:34:05.053Z,98199.24
2018-05-16T14:36:32.734Z,98203.23
2018-05-16T14:39:00.427Z,98206.25
2018-05-16T14:41:28.114Z,98216.45
2018-05-16T14:43:55.795Z,98220.90
2018-05-16T14:46:23.495Z,98224.84
2018-05-16T14:48:51.135Z,98219.22
2018-05-16T14:51:18.882Z,98219.77
2018-05-16T14:53:46.526Z,98221.09
2018-05-16T14:56:14.160Z,98231.34
2018-05-16T14:58:41.875Z,98230.66
2018-05-16T15:01:09.581Z,98231.13
2018-05-16T15:03:38.310Z,98222.05
2018-05-16T15:06:06.064Z,98226.61
2018-05-16T15:08:33.794Z,98227.92
2018-05-16T15:11:01.443Z,98225.84
2018-05-16T15:13:29.146Z,98224.53
2018-05-16T15:15:56.771Z,98222.56
2018-05-16T15:18:24.484Z,98213.64
2018-05-16T15:20:52.167Z,98215.21
2018-05-16T15:23:19.804Z,98204.33
2018-05-16T15:25:47.434Z,98201.41
2018-05-16T15:28:15.369Z,98200.89
2018-05-16T15:30:43.007Z,98195.75
2018-05-16T15:33:10.668Z,98201.45
2018-05-16T15:35:38.451Z,98199.53
2018-05-16T15:38:06.176Z,98204.56
2018-05-16T15:40:33.896Z,98203.03
2018-05-16T15:43:01.632Z,98199.06
2018-05-16T15:45:29.395Z,98200.50
2018-05-16T15:47:57.083Z,98205.27
2018-05-16T15:50:25.127Z,98207.45
2018-05-16T15:52:52.779Z,98204.05
2018-05-16T15:55:20.468Z,98209.84
2018-05-16T15:57:48.337Z,98208.02
2018-05-16T16:00:16.060Z,98213.94
2018-05-16T16:02:43.769Z,98216.50
2018-05-16T16:05:11.904Z,98217.93
2018-05-16T16:07:39.540Z,98207.69
2018-05-16T16:10:07.240Z,98211.23
2018-05-16T16:12:35.004Z,98198.78
2018-05-16T16:15:02.741Z,98205.66
2018-05-16T16:17:30.555Z,98213.38
2018-05-16T16:19:58.240Z,98222.55
2018-05-16T16:22:25.933Z,98220.34
2018-05-16T16:24:53.559Z,98223.25
2018-05-16T16:27:21.281Z,98221.81
2018-05-16T16:29:48.967Z,98213.87
2018-05-16T16:32:16.615Z,98217.37
2018-05-16T16:34:44.284Z,98216.97
2018-05-16T16:37:11.914Z,98220.92
2018-05-16T16:39:39.551Z,98211.41
2018-05-16T16:42:07.347Z,98210.00
2018-05-16T16:44:34.987Z,98228.03
2018-05-16T16:47:02.639Z,98227.43
2018-05-16T16:49:30.310Z,98226.94
2018-05-16T16:51:57.963Z,98229.51
2018-05-16T16:54:25.590Z,98227.09
2018-05-16T16:56:53.274Z,98239.03
2018-05-16T16:59:20.859Z,98233.16
2018-05-16T17:01:49.563Z,98236.09
2018-05-16T17:04:18.019Z,98228.24
2018-05-16T17:06:45.939Z,98225.41
2018-05-16T17:09:13.541Z,98229.75
2018-05-16T17:11:41.357Z,98228.64
2018-05-16T17:14:09.015Z,98231.70
2018-05-16T17:16:36.662Z,98236.27
2018-05-16T17:19:05.049Z,98238.09
2018-05-16T17:21:32.708Z,98244.03
2018-05-16T17:24:00.296Z,98252.19
2018-05-16T17:26:27.960Z,98253.70
2018-05-16T17:28:56.484Z,98256.88
2018-05-16T17:31:24.104Z,98256.61
2018-05-16T17:33:51.800Z,98263.08
2018-05-16T17:36:19.386Z,98256.17
2018-05-16T17:38:46.998Z,98261.86
2018-05-16T17:41:14.713Z,98263.36
2018-05-16T17:43:42.322Z,98271.64
2018-05-16T17:46:09.943Z,98273.87
2018-05-16T17:48:37.612Z,98279.66
2018-05-16T17:51:05.261Z,98284.36
2018-05-16T17:53:32.860Z,98275.92
2018-05-16T17:56:00.502Z,98281.03
2018-05-16T17:58:28.131Z,98279.08
2018-05-16T18:00:55.803Z,98278.81
2018-05-16T18:03:23.405Z,98275.64
2018-05-16T18:05:50.985Z,98282.82
2018-05-16T18:08:18.568Z,98283.05
2018-05-16T18:10:46.215Z,98284.81
2018-05-16T18:16:49.473Z,98281.03
2018-05-16T18:19:17.089Z,98282.81
2018-05-16T18:21:44.728Z,98292.17
2018-05-16T18:24:12.452Z,98310.89
2018-05-16T18:26:40.026Z,98310.45
2018-05-16T18:29:07.730Z,98307.82
2018-05-16T18:31:35.807Z,98305.89
2018-05-16T18:34:03.383Z,98303.94
2018-05-16T18:36:30.964Z,98315.00
2018-05-16T18:38:58.593Z,98318.14
2018-05-16T18:41:26.184Z,98324.03
2018-05-16T18:43:53.784Z,98320.31
2018-05-16T18:46:21.489Z,98318.52
2018-05-16T18:48:49.153Z,98315.48
2018-05-16T18:51:16.822Z,98319.90
2018-05-16T18:53:44.442Z,98319.90
2018-05-16T18:56:12.048Z,98333.13
2018-05-16T18:58:39.691Z,98322.40
2018-05-16T19:01:07.444Z,98322.11
2018-05-16T19:03:43.273Z,98315.64
2018-05-16T19:06:11.308Z,98315.02
2018-05-16T19:08:38.982Z,98323.77
2018-05-16T19:11:06.638Z,98323.84
2018-05-16T19:13:34.316Z,98329.94
2018-05-16T19:16:01.923Z,98334.81
2018-05-16T19:18:29.557Z,98336.12
2018-05-16T19:20:57.279Z,98339.84
2018-05-16T19:23:24.901Z,98351.93
2018-05-16T19:25:52.523Z,98348.46
2018-05-16T19:28:20.213Z,98343.91
2018-05-16T19:30:47.815Z,98348.45
2018-05-16T19:33:15.441Z,98354.33
2018-05-16T19:35:43.252Z,98347.49
2018-05-16T19:38:10.905Z,98361.50
2018-05-16T19:40:38.502Z,98370.89
2018-05-16T19:43:06.219Z,98377.81
2018-05-16T19:45:33.794Z,98385.50
2018-05-16T19:48:01.475Z,98402.55
2018-05-16T19:50:29.165Z,98401.75
2018-05-16T19:52:56.905Z,98399.02
2018-05-16T19:55:24.475Z,98390.75
2018-05-16T19:57:52.108Z,98391.25
2018-05-16T20:00:19.703Z,98391.82
2018-05-16T20:02:47.278Z,98388.69
2018-05-16T20:05:14.897Z,98386.30
2018-05-16T20:07:42.473Z,98394.55
2018-05-16T20:10:10.060Z,98395.68
2018-05-16T20:12:37.672Z,98395.80
2018-05-16T20:15:05.346Z,98392.33
2018-05-16T20:17:33.004Z,98399.45
2018-05-16T20:20:00.642Z,98398.48
2018-05-16T20:22:28.291Z,98392.37
2018-05-16T20:24:56.703Z,98402.30
2018-05-16T20:27:24.476Z,98405.70
2018-05-16T20:29:52.059Z,98398.39
2018-05-16T20:32:19.636Z,98387.81
2018-05-16T20:34:47.416Z,98389.08
2018-05-16T20:37:15.628Z,98379.05
2018-05-16T20:39:43.265Z,98378.01
2018-05-16T20:42:10.984Z,98385.44
2018-05-16T20:44:38.554Z,98388.06
2018-05-16T20:47:06.140Z,98377.89
2018-05-16T20:49:33.762Z,98381.73
2018-05-16T20:52:01.342Z,98381.98
2018-05-16T20:54:28.977Z,98388.30
2018-05-16T20:56:56.612Z,98389.09
2018-05-16T20:59:24.218Z,98395.05
2018-05-16T21:01:51.811Z,98390.38
2018-05-16T21:04:19.611Z,98397.11
2018-05-16T21:06:47.247Z,98398.70
2018-05-16T21:09:14.829Z,98407.72
2018-05-16T21:11:43.295Z,98415.85
2018-05-16T21:14:10.867Z,98419.44
2018-05-16T21:16:38.480Z,98424.52
2018-05-16T21:19:06.144Z,98424.64
2018-05-16T21:21:33.756Z,98424.40
2018-05-16T21:24:01.328Z,98420.12
2018-05-16T21:26:29.132Z,98423.67
2018-05-16T21:28:56.771Z,98420.59
2018-05-16T21:31:24.388Z,98416.27
2018-05-16T21:33:52.085Z,98408.38
2018-05-16T21:36:23.494Z,98406.14
2018-05-16T21:38:51.064Z,98410.27
2018-05-16T21:41:18.690Z,98411.36
2018-05-16T21:43:46.367Z,98401.35
2018-05-16T21:46:13.940Z,98395.98
2018-05-16T21:48:42.423Z,98392.29
2018-05-16T21:51:10.055Z,98390.39
2018-05-16T21:53:37.705Z,98390.08
2018-05-16T21:56:05.367Z,98378.05
2018-05-16T21:58:32.944Z,98377.91
2018-05-16T22:01:00.521Z,98373.44
2018-05-16T22:03:28.239Z,98373.17
2018-05-16T22:05:55.810Z,98367.03
2018-05-16T22:08:23.385Z,98368.13
2018-05-16T22:10:51.093Z,98364.72
2018-05-16T22:13:18.690Z,98360.84
2018-05-16T22:15:46.285Z,98367.52
2018-05-16T22:18:13.912Z,98374.89
2018-05-16T22:20:41.490Z,98374.89
2018-05-16T22:23:09.068Z,98376.31
2018-05-16T22:25:36.680Z,98373.77
2018-05-16T22:28:04.292Z,98365.99
2018-05-16T22:30:37.578Z,98362.98
2018-05-16T22:33:10.724Z,98364.84
2018-05-16T22:35:43.935Z,98367.80
2018-05-16T22:38:17.155Z,98364.59
2018-05-16T22:40:50.321Z,98360.40
2018-05-16T22:43:17.934Z,98365.59
2018-05-16T22:45:45.607Z,98369.30
2018-05-16T22:48:13.326Z,98369.84
2018-05-16T22:50:40.907Z,98376.27
2018-05-16T22:53:09.199Z,98369.73
2018-05-16T22:55:36.832Z,98371.44
2018-05-16T22:58:04.428Z,98379.41
2018-05-16T23:00:32.071Z,98385.95
2018-05-16T23:02:59.770Z,98387.13
2018-05-16T23:05:27.351Z,98388.30
2018-05-16T23:07:54.914Z,98383.08
2018-05-16T23:10:22.627Z,98390.29
2018-05-16T23:12:50.210Z,98390.64
2018-05-16T23:15:17.840Z,98388.57
2018-05-16T23:17:45.581Z,98384.00
2018-05-16T23:20:13.168Z,98381.70
2018-05-16T23:22:40.808Z,98375.67
2018-05-16T23:25:08.501Z,98369.11
2018-05-16T23:27:36.671Z,98372.82
2018-05-16T23:30:04.271Z,98362.37
2018-05-16T23:32:31.953Z,98363.45
2018-05-16T23:34:59.536Z,98363.30
2018-05-16T23:37:27.134Z,98360.22
2018-05-16T23:39:54.760Z,98349.73
2018-05-16T23:42:22.337Z,98343.83
2018-05-16T23:44:50.850Z,98342.20
2018-05-16T23:47:18.548Z,98335.58
2018-05-16T23:49:46.888Z,98318.50
2018-05-16T23:52:14.516Z,98313.40
2018-05-16T23:54:42.211Z,98315.53
2018-05-16T23:57:09.828Z,98328.40
2018-05-16T23:59:37.460Z,98329.57
